Meath Environmental Platform

Observations for Trim Market St

Time AQI Temp °C Hum % Pres Pa CO μg/m³ H₂S μg/m³ NO μg/m³ NO₂ μg/m³ O₃ μg/m³ SO₂ μg/m³ PM1 μg/m³ PM2.5 μg/m³ PM10 μg/m³
Thursday 9 July 2026
23:39 1 21.4 68 55,993 0 0 0 6.72 12.79 0 1.43 2.68 4.96
23:38 1 21.4 68 55,993 0 0 0 7.32 11.45 0 0 1.7 3.68
23:37 1 21.4 67 56,008 0 0 0 6.53 10.61 0 2.14 3.18 4.96
23:35 1 21.5 67 56,034 0 0 0 6.7 11.65 0 1.43 3.18 4.96
23:25 1 21.7 67 56,131 0 0.26 0 11.19 11.55 0 1.43 2.71 4.31
23:24 1 21.7 67 56,186 0 1.21 0 11.49 9.22 0 0 2.21 3.66
23:23 1 21.7 67 56,243 0 0.92 0 9.9 12.54 0 2.14 3.2 4.95
23:22 1 21.7 67 56,306 0 0 0 13.13 9.16 0 1.43 3.7 6.24
23:21 1 21.7 67 56,369 0 0 0 9.73 7.38 0 1.43 2.72 4.3
23:20 1 21.7 67 56,423 0.02 0.21 0 9.84 8.11 0 1.43 2.72 4.29
23:19 1 21.8 66 56,483 0.12 3.8 0.38 16.82 10.6 0 2.85 4.69 8.18
23:18 1 21.8 66 56,578 0 0.98 0 9.74 8.96 0 2.14 3.23 4.93
23:17 1 21.8 66 56,652 0 2.38 0 15.17 8.42 0 1.43 3.24 4.93
23:16 1 21.9 66 56,744 0 2.24 0 15.15 11.57 0 1.43 3.24 4.93
23:15 1 21.8 66 56,823 0 3.91 0 10.8 8.87 0 2.14 3.25 5.57
23:14 1 21.9 66 56,887 0 2.72 0 13.4 11.67 0 1.43 2.77 4.26
23:13 1 21.9 65 56,951 0 4.62 0 18.12 22.03 0 2.14 2.78 5.57
23:12 1 21.9 65 56,997 0 0 0 6.93 15.55 0 2.85 4.26 6.22
23:10 1 21.9 65 56,999 0 0 0 6.03 14.29 0 2.14 3.77 5.57
23:09 1 22 65 56,996 0 0 0 10.42 11.36 0 2.14 3.77 5.56